sensor_id;sensor_type;location;lat;lon;timestamp;pressure;altitude;pressure_sealevel;temperature;humidity
51617;BME280;37697;52.588;13.394;2024-02-21T00:00:51;101545.19;;;7.07;100.00
51617;BME280;37697;52.588;13.394;2024-02-21T00:06:20;101534.52;;;7.07;100.00
51617;BME280;37697;52.588;13.394;2024-02-21T00:11:45;101531.52;;;7.08;100.00
51617;BME280;37697;52.588;13.394;2024-02-21T00:17:04;101522.63;;;7.07;100.00
51617;BME280;37697;52.588;13.394;2024-02-21T00:22:30;101522.05;;;7.05;100.00
51617;BME280;37697;52.588;13.394;2024-02-21T00:27:39;101514.77;;;7.02;100.00
51617;BME280;37697;52.588;13.394;2024-02-21T00:33:04;101512.52;;;7.03;100.00
51617;BME280;37697;52.588;13.394;2024-02-21T00:38:30;101503.59;;;7.04;100.00
51617;BME280;37697;52.588;13.394;2024-02-21T00:43:56;101507.30;;;7.02;100.00
51617;BME280;37697;52.588;13.394;2024-02-21T00:49:13;101502.10;;;7.02;100.00
51617;BME280;37697;52.588;13.394;2024-02-21T00:54:39;101496.88;;;7.00;100.00
51617;BME280;37697;52.588;13.394;2024-02-21T00:59:59;101492.60;;;7.01;100.00
51617;BME280;37697;52.588;13.394;2024-02-21T01:05:23;101489.97;;;7.00;100.00
51617;BME280;37697;52.588;13.394;2024-02-21T01:10:34;101481.30;;;6.97;100.00
51617;BME280;37697;52.588;13.394;2024-02-21T01:16:00;101480.02;;;6.94;100.00
51617;BME280;37697;52.588;13.394;2024-02-21T01:21:18;101479.93;;;6.91;100.00
51617;BME280;37697;52.588;13.394;2024-02-21T01:26:44;101472.59;;;6.90;100.00
51617;BME280;37697;52.588;13.394;2024-02-21T01:32:10;101463.55;;;6.91;100.00
51617;BME280;37697;52.588;13.394;2024-02-21T01:37:34;101458.48;;;6.94;100.00
51617;BME280;37697;52.588;13.394;2024-02-21T01:43:00;101456.46;;;6.94;100.00
51617;BME280;37697;52.588;13.394;2024-02-21T01:48:26;101455.39;;;6.95;100.00
51617;BME280;37697;52.588;13.394;2024-02-21T01:53:53;101450.39;;;6.96;100.00
51617;BME280;37697;52.588;13.394;2024-02-21T01:59:19;101447.23;;;6.97;100.00
51617;BME280;37697;52.588;13.394;2024-02-21T02:04:47;101443.96;;;6.98;100.00
51617;BME280;37697;52.588;13.394;2024-02-21T02:10:12;101432.58;;;7.00;100.00
51617;BME280;37697;52.588;13.394;2024-02-21T02:15:42;101424.41;;;6.99;100.00
51617;BME280;37697;52.588;13.394;2024-02-21T02:21:13;101421.83;;;6.98;100.00
51617;BME280;37697;52.588;13.394;2024-02-21T02:26:42;101417.77;;;6.96;100.00
51617;BME280;37697;52.588;13.394;2024-02-21T02:32:08;101414.78;;;6.94;100.00
51617;BME280;37697;52.588;13.394;2024-02-21T02:37:34;101406.41;;;6.88;100.00
51617;BME280;37697;52.588;13.394;2024-02-21T02:42:59;101398.91;;;6.81;100.00
51617;BME280;37697;52.588;13.394;2024-02-21T02:48:25;101392.70;;;6.76;100.00
51617;BME280;37697;52.588;13.394;2024-02-21T02:53:50;101393.91;;;6.71;100.00
51617;BME280;37697;52.588;13.394;2024-02-21T02:59:15;101384.73;;;6.67;100.00
51617;BME280;37697;52.588;13.394;2024-02-21T03:04:42;101382.03;;;6.59;100.00
51617;BME280;37697;52.588;13.394;2024-02-21T03:10:09;101371.43;;;6.55;100.00
51617;BME280;37697;52.588;13.394;2024-02-21T03:15:35;101359.93;;;6.53;100.00
51617;BME280;37697;52.588;13.394;2024-02-21T03:21:01;101354.97;;;6.50;100.00
51617;BME280;37697;52.588;13.394;2024-02-21T03:26:26;101350.89;;;6.45;100.00
51617;BME280;37697;52.588;13.394;2024-02-21T03:31:52;101349.44;;;6.42;100.00
51617;BME280;37697;52.588;13.394;2024-02-21T03:37:16;101348.87;;;6.39;100.00
51617;BME280;37697;52.588;13.394;2024-02-21T03:42:42;101341.84;;;6.36;100.00
51617;BME280;37697;52.588;13.394;2024-02-21T03:48:08;101325.98;;;6.32;100.00
51617;BME280;37697;52.588;13.394;2024-02-21T03:53:34;101317.50;;;6.30;100.00
51617;BME280;37697;52.588;13.394;2024-02-21T03:59:00;101318.80;;;6.29;100.00
51617;BME280;37697;52.588;13.394;2024-02-21T04:04:26;101322.73;;;6.29;100.00
51617;BME280;37697;52.588;13.394;2024-02-21T04:09:52;101314.95;;;6.27;100.00
51617;BME280;37697;52.588;13.394;2024-02-21T04:15:18;101307.40;;;6.29;100.00
51617;BME280;37697;52.588;13.394;2024-02-21T04:20:43;101295.75;;;6.29;100.00
51617;BME280;37697;52.588;13.394;2024-02-21T04:26:09;101284.42;;;6.29;100.00
51617;BME280;37697;52.588;13.394;2024-02-21T04:31:35;101269.88;;;6.30;100.00
51617;BME280;37697;52.588;13.394;2024-02-21T04:37:01;101265.20;;;6.30;100.00
51617;BME280;37697;52.588;13.394;2024-02-21T04:42:27;101247.42;;;6.33;100.00
51617;BME280;37697;52.588;13.394;2024-02-21T04:47:52;101234.30;;;6.34;100.00
51617;BME280;37697;52.588;13.394;2024-02-21T04:53:18;101230.26;;;6.35;100.00
51617;BME280;37697;52.588;13.394;2024-02-21T04:58:44;101228.48;;;6.36;100.00
51617;BME280;37697;52.588;13.394;2024-02-21T05:04:10;101223.36;;;6.35;100.00
51617;BME280;37697;52.588;13.394;2024-02-21T05:09:36;101217.34;;;6.34;100.00
51617;BME280;37697;52.588;13.394;2024-02-21T05:15:01;101224.92;;;6.33;100.00
51617;BME280;37697;52.588;13.394;2024-02-21T05:20:27;101214.60;;;6.35;100.00
51617;BME280;37697;52.588;13.394;2024-02-21T05:25:53;101212.80;;;6.36;100.00
51617;BME280;37697;52.588;13.394;2024-02-21T05:31:20;101208.84;;;6.38;100.00
51617;BME280;37697;52.588;13.394;2024-02-21T05:36:46;101214.73;;;6.37;100.00
51617;BME280;37697;52.588;13.394;2024-02-21T05:42:12;101217.20;;;6.38;100.00
51617;BME280;37697;52.588;13.394;2024-02-21T05:47:38;101203.92;;;6.40;100.00
51617;BME280;37697;52.588;13.394;2024-02-21T05:53:04;101199.71;;;6.39;100.00
51617;BME280;37697;52.588;13.394;2024-02-21T05:58:30;101193.78;;;6.38;100.00
51617;BME280;37697;52.588;13.394;2024-02-21T06:03:55;101188.38;;;6.39;100.00
51617;BME280;37697;52.588;13.394;2024-02-21T06:09:21;101188.27;;;6.40;100.00
51617;BME280;37697;52.588;13.394;2024-02-21T06:14:47;101179.85;;;6.41;100.00
51617;BME280;37697;52.588;13.394;2024-02-21T06:20:13;101175.09;;;6.40;100.00
51617;BME280;37697;52.588;13.394;2024-02-21T06:25:41;101175.69;;;6.41;100.00
51617;BME280;37697;52.588;13.394;2024-02-21T06:31:07;101163.06;;;6.43;100.00
51617;BME280;37697;52.588;13.394;2024-02-21T06:36:32;101171.62;;;6.45;100.00
51617;BME280;37697;52.588;13.394;2024-02-21T06:41:58;101182.95;;;6.48;100.00
51617;BME280;37697;52.588;13.394;2024-02-21T06:47:16;101180.13;;;6.52;100.00
51617;BME280;37697;52.588;13.394;2024-02-21T06:52:35;101188.10;;;6.56;100.00
51617;BME280;37697;52.588;13.394;2024-02-21T06:58:02;101189.91;;;6.58;100.00
51617;BME280;37697;52.588;13.394;2024-02-21T07:03:27;101187.61;;;6.59;100.00
51617;BME280;37697;52.588;13.394;2024-02-21T07:08:52;101188.81;;;6.60;100.00
51617;BME280;37697;52.588;13.394;2024-02-21T07:14:19;101181.23;;;6.62;100.00
51617;BME280;37697;52.588;13.394;2024-02-21T07:19:45;101182.34;;;6.66;100.00
51617;BME280;37697;52.588;13.394;2024-02-21T07:25:11;101183.39;;;6.69;100.00
51617;BME280;37697;52.588;13.394;2024-02-21T07:30:36;101174.27;;;6.75;100.00
51617;BME280;37697;52.588;13.394;2024-02-21T07:36:05;101173.27;;;6.82;100.00
51617;BME280;37697;52.588;13.394;2024-02-21T07:41:30;101175.15;;;6.86;100.00
51617;BME280;37697;52.588;13.394;2024-02-21T07:46:56;101181.13;;;6.92;100.00
51617;BME280;37697;52.588;13.394;2024-02-21T07:52:22;101179.23;;;6.94;100.00
51617;BME280;37697;52.588;13.394;2024-02-21T07:57:48;101173.10;;;6.96;100.00
51617;BME280;37697;52.588;13.394;2024-02-21T08:03:12;101176.27;;;6.96;100.00
51617;BME280;37697;52.588;13.394;2024-02-21T08:08:38;101173.66;;;6.98;100.00
51617;BME280;37697;52.588;13.394;2024-02-21T08:14:04;101165.89;;;7.02;100.00
51617;BME280;37697;52.588;13.394;2024-02-21T08:19:25;101163.71;;;7.09;100.00
51617;BME280;37697;52.588;13.394;2024-02-21T08:24:51;101165.71;;;7.12;100.00
51617;BME280;37697;52.588;13.394;2024-02-21T08:30:17;101161.07;;;7.16;100.00
51617;BME280;37697;52.588;13.394;2024-02-21T08:35:43;101159.27;;;7.21;100.00
51617;BME280;37697;52.588;13.394;2024-02-21T08:41:09;101162.20;;;7.32;100.00
51617;BME280;37697;52.588;13.394;2024-02-21T08:46:55;101160.63;;;7.44;100.00
51617;BME280;37697;52.588;13.394;2024-02-21T08:52:21;101159.49;;;7.63;100.00
51617;BME280;37697;52.588;13.394;2024-02-21T08:57:47;101156.91;;;7.70;100.00
51617;BME280;37697;52.588;13.394;2024-02-21T09:03:13;101164.71;;;7.74;100.00
51617;BME280;37697;52.588;13.394;2024-02-21T09:08:39;101168.38;;;7.78;100.00
51617;BME280;37697;52.588;13.394;2024-02-21T09:14:04;101170.91;;;7.82;100.00
51617;BME280;37697;52.588;13.394;2024-02-21T09:19:31;101165.20;;;7.84;100.00
51617;BME280;37697;52.588;13.394;2024-02-21T09:24:56;101160.54;;;7.85;100.00
51617;BME280;37697;52.588;13.394;2024-02-21T09:30:22;101150.11;;;7.88;100.00
51617;BME280;37697;52.588;13.394;2024-02-21T09:35:48;101142.09;;;8.01;100.00
51617;BME280;37697;52.588;13.394;2024-02-21T09:41:16;101140.14;;;8.19;100.00
51617;BME280;37697;52.588;13.394;2024-02-21T09:46:57;101137.68;;;8.38;100.00
51617;BME280;37697;52.588;13.394;2024-02-21T09:52:27;101138.85;;;8.42;100.00
51617;BME280;37697;52.588;13.394;2024-02-21T09:57:54;101138.77;;;8.41;100.00
51617;BME280;37697;52.588;13.394;2024-02-21T10:03:23;101138.08;;;8.44;100.00
51617;BME280;37697;52.588;13.394;2024-02-21T10:08:54;101136.71;;;8.45;100.00
51617;BME280;37697;52.588;13.394;2024-02-21T10:14:09;101135.70;;;8.53;100.00
51617;BME280;37697;52.588;13.394;2024-02-21T10:19:28;101134.68;;;8.61;100.00
51617;BME280;37697;52.588;13.394;2024-02-21T10:24:47;101136.01;;;8.71;100.00
51617;BME280;37697;52.588;13.394;2024-02-21T10:30:15;101134.73;;;8.86;100.00
51617;BME280;37697;52.588;13.394;2024-02-21T10:35:41;101144.80;;;9.04;100.00
51617;BME280;37697;52.588;13.394;2024-02-21T10:41:06;101144.58;;;9.07;100.00
51617;BME280;37697;52.588;13.394;2024-02-21T10:46:33;101138.73;;;9.08;100.00
51617;BME280;37697;52.588;13.394;2024-02-21T10:52:09;101131.23;;;9.05;100.00
51617;BME280;37697;52.588;13.394;2024-02-21T10:57:39;101125.92;;;9.01;100.00
51617;BME280;37697;52.588;13.394;2024-02-21T11:03:05;101119.52;;;8.94;100.00
51617;BME280;37697;52.588;13.394;2024-02-21T11:08:32;101119.85;;;8.86;100.00
51617;BME280;37697;52.588;13.394;2024-02-21T11:14:06;101111.86;;;8.82;100.00
51617;BME280;37697;52.588;13.394;2024-02-21T11:19:32;101096.88;;;8.89;100.00
51617;BME280;37697;52.588;13.394;2024-02-21T11:25:07;101088.16;;;9.04;100.00
51617;BME280;37697;52.588;13.394;2024-02-21T11:30:40;101069.00;;;9.17;100.00
51617;BME280;37697;52.588;13.394;2024-02-21T11:36:07;101065.80;;;9.34;100.00
51617;BME280;37697;52.588;13.394;2024-02-21T11:41:23;101054.83;;;9.50;100.00
51617;BME280;37697;52.588;13.394;2024-02-21T11:46:33;101040.02;;;9.77;100.00
51617;BME280;37697;52.588;13.394;2024-02-21T11:51:40;101026.06;;;9.96;100.00
51617;BME280;37697;52.588;13.394;2024-02-21T11:56:58;101013.22;;;10.07;100.00
51617;BME280;37697;52.588;13.394;2024-02-21T12:02:24;101011.23;;;10.03;100.00
51617;BME280;37697;52.588;13.394;2024-02-21T12:07:35;101011.98;;;10.19;100.00
51617;BME280;37697;52.588;13.394;2024-02-21T12:12:51;101005.70;;;10.34;100.00
51617;BME280;37697;52.588;13.394;2024-02-21T12:18:12;101000.92;;;10.33;100.00
51617;BME280;37697;52.588;13.394;2024-02-21T12:23:21;100992.98;;;10.23;100.00
51617;BME280;37697;52.588;13.394;2024-02-21T12:28:26;100974.17;;;10.33;100.00
51617;BME280;37697;52.588;13.394;2024-02-21T12:33:42;100971.92;;;10.48;100.00
51617;BME280;37697;52.588;13.394;2024-02-21T12:38:48;100962.18;;;10.56;100.00
51617;BME280;37697;52.588;13.394;2024-02-21T12:44:08;100956.16;;;10.68;99.12
51617;BME280;37697;52.588;13.394;2024-02-21T12:49:17;100945.55;;;10.81;99.49
51617;BME280;37697;52.588;13.394;2024-02-21T12:54:49;100939.00;;;10.94;99.08
51617;BME280;37697;52.588;13.394;2024-02-21T13:00:07;100932.45;;;11.17;99.70
51617;BME280;37697;52.588;13.394;2024-02-21T13:05:33;100929.98;;;11.26;98.50
51617;BME280;37697;52.588;13.394;2024-02-21T13:10:59;100922.05;;;11.13;97.64
51617;BME280;37697;52.588;13.394;2024-02-21T13:16:17;100917.73;;;11.01;97.48
51617;BME280;37697;52.588;13.394;2024-02-21T13:21:43;100911.48;;;10.99;97.55
51617;BME280;37697;52.588;13.394;2024-02-21T13:27:11;100897.05;;;10.98;97.61
51617;BME280;37697;52.588;13.394;2024-02-21T13:32:37;100890.84;;;11.00;97.26
51617;BME280;37697;52.588;13.394;2024-02-21T13:38:04;100886.98;;;10.91;96.74
51617;BME280;37697;52.588;13.394;2024-02-21T13:43:30;100883.06;;;10.85;96.51
51617;BME280;37697;52.588;13.394;2024-02-21T13:49:03;100882.27;;;10.84;96.95
51617;BME280;37697;52.588;13.394;2024-02-21T13:54:30;100877.33;;;10.79;96.51
51617;BME280;37697;52.588;13.394;2024-02-21T13:59:55;100878.00;;;10.74;96.18
51617;BME280;37697;52.588;13.394;2024-02-21T14:05:21;100878.48;;;10.65;96.18
51617;BME280;37697;52.588;13.394;2024-02-21T14:10:47;100870.70;;;10.60;95.98
51617;BME280;37697;52.588;13.394;2024-02-21T14:16:13;100869.63;;;10.50;95.87
51617;BME280;37697;52.588;13.394;2024-02-21T14:21:48;100860.98;;;10.43;95.79
51617;BME280;37697;52.588;13.394;2024-02-21T14:27:14;100862.00;;;10.42;95.26
51617;BME280;37697;52.588;13.394;2024-02-21T14:32:43;100855.23;;;10.40;94.99
51617;BME280;37697;52.588;13.394;2024-02-21T14:38:10;100846.00;;;10.37;94.94
51617;BME280;37697;52.588;13.394;2024-02-21T14:43:35;100839.73;;;10.32;95.19
51617;BME280;37697;52.588;13.394;2024-02-21T14:49:04;100839.09;;;10.31;95.16
51617;BME280;37697;52.588;13.394;2024-02-21T14:54:29;100831.22;;;10.26;94.47
51617;BME280;37697;52.588;13.394;2024-02-21T14:59:55;100818.05;;;10.27;95.05
51617;BME280;37697;52.588;13.394;2024-02-21T15:05:24;100811.60;;;10.27;93.94
51617;BME280;37697;52.588;13.394;2024-02-21T15:10:33;100803.76;;;10.21;92.96
51617;BME280;37697;52.588;13.394;2024-02-21T15:15:59;100792.42;;;10.20;93.00
51617;BME280;37697;52.588;13.394;2024-02-21T15:21:25;100783.88;;;10.18;92.22
51617;BME280;37697;52.588;13.394;2024-02-21T15:26:51;100766.05;;;10.18;91.84
51617;BME280;37697;52.588;13.394;2024-02-21T15:32:05;100761.65;;;10.19;92.32
51617;BME280;37697;52.588;13.394;2024-02-21T15:37:14;100752.18;;;10.22;92.45
51617;BME280;37697;52.588;13.394;2024-02-21T15:42:25;100741.45;;;10.22;92.42
51617;BME280;37697;52.588;13.394;2024-02-21T15:47:51;100732.56;;;10.16;91.39
51617;BME280;37697;52.588;13.394;2024-02-21T15:53:16;100721.08;;;10.08;90.60
51617;BME280;37697;52.588;13.394;2024-02-21T15:58:43;100702.23;;;9.97;91.17
51617;BME280;37697;52.588;13.394;2024-02-21T16:04:10;100696.15;;;9.84;91.08
51617;BME280;37697;52.588;13.394;2024-02-21T16:09:36;100687.73;;;9.75;91.52
51617;BME280;37697;52.588;13.394;2024-02-21T16:14:52;100684.12;;;9.65;91.46
51617;BME280;37697;52.588;13.394;2024-02-21T16:20:19;100677.56;;;9.52;91.20
51617;BME280;37697;52.588;13.394;2024-02-21T16:25:27;100676.48;;;9.43;91.50
51617;BME280;37697;52.588;13.394;2024-02-21T16:30:53;100672.63;;;9.32;91.59
51617;BME280;37697;52.588;13.394;2024-02-21T16:36:02;100674.38;;;9.21;92.01
51617;BME280;37697;52.588;13.394;2024-02-21T16:41:28;100666.47;;;9.11;92.17
51617;BME280;37697;52.588;13.394;2024-02-21T16:46:54;100664.59;;;9.05;92.45
51617;BME280;37697;52.588;13.394;2024-02-21T16:52:11;100669.58;;;8.97;92.32
51617;BME280;37697;52.588;13.394;2024-02-21T16:57:36;100667.21;;;8.88;92.53
51617;BME280;37697;52.588;13.394;2024-02-21T17:03:02;100668.36;;;8.80;92.20
51617;BME280;37697;52.588;13.394;2024-02-21T17:08:29;100666.50;;;8.70;91.68
51617;BME280;37697;52.588;13.394;2024-02-21T17:13:55;100664.80;;;8.65;91.96
51617;BME280;37697;52.588;13.394;2024-02-21T17:19:20;100659.00;;;8.58;91.76
51617;BME280;37697;52.588;13.394;2024-02-21T17:24:46;100647.41;;;8.54;91.15
51617;BME280;37697;52.588;13.394;2024-02-21T17:30:12;100636.87;;;8.49;90.41
51617;BME280;37697;52.588;13.394;2024-02-21T17:35:37;100619.98;;;8.41;91.17
51617;BME280;37697;52.588;13.394;2024-02-21T17:41:03;100604.61;;;8.35;91.22
51617;BME280;37697;52.588;13.394;2024-02-21T17:46:22;100602.91;;;8.30;91.25
51617;BME280;37697;52.588;13.394;2024-02-21T17:51:47;100598.30;;;8.25;91.47
51617;BME280;37697;52.588;13.394;2024-02-21T17:57:14;100605.63;;;8.21;91.55
51617;BME280;37697;52.588;13.394;2024-02-21T18:02:32;100593.73;;;8.16;91.79
51617;BME280;37697;52.588;13.394;2024-02-21T18:07:58;100582.13;;;8.08;92.08
51617;BME280;37697;52.588;13.394;2024-02-21T18:13:24;100573.08;;;8.03;92.06
51617;BME280;37697;52.588;13.394;2024-02-21T18:18:50;100558.75;;;7.99;92.46
51617;BME280;37697;52.588;13.394;2024-02-21T18:24:14;100544.36;;;7.95;92.33
51617;BME280;37697;52.588;13.394;2024-02-21T18:29:40;100536.25;;;7.90;92.81
51617;BME280;37697;52.588;13.394;2024-02-21T18:34:58;100529.32;;;7.86;93.34
51617;BME280;37697;52.588;13.394;2024-02-21T18:40:24;100522.72;;;7.83;93.44
51617;BME280;37697;52.588;13.394;2024-02-21T18:45:43;100503.92;;;7.81;93.58
51617;BME280;37697;52.588;13.394;2024-02-21T18:51:01;100484.38;;;7.79;93.54
51617;BME280;37697;52.588;13.394;2024-02-21T18:56:21;100470.17;;;7.78;94.36
51617;BME280;37697;52.588;13.394;2024-02-21T19:01:42;100464.41;;;7.79;94.30
51617;BME280;37697;52.588;13.394;2024-02-21T19:06:51;100454.23;;;7.78;94.34
51617;BME280;37697;52.588;13.394;2024-02-21T19:12:17;100438.23;;;7.77;94.74
51617;BME280;37697;52.588;13.394;2024-02-21T19:17:23;100423.30;;;7.74;95.03
51617;BME280;37697;52.588;13.394;2024-02-21T19:22:49;100407.27;;;7.71;95.21
51617;BME280;37697;52.588;13.394;2024-02-21T19:28:14;100396.51;;;7.68;95.27
51617;BME280;37697;52.588;13.394;2024-02-21T19:33:40;100406.07;;;7.66;95.39
51617;BME280;37697;52.588;13.394;2024-02-21T19:39:07;100396.23;;;7.63;95.72
51617;BME280;37697;52.588;13.394;2024-02-21T19:44:33;100383.44;;;7.59;95.98
51617;BME280;37697;52.588;13.394;2024-02-21T19:49:59;100371.02;;;7.57;96.16
51617;BME280;37697;52.588;13.394;2024-02-21T19:55:25;100361.63;;;7.56;96.54
51617;BME280;37697;52.588;13.394;2024-02-21T20:00:51;100361.88;;;7.57;96.98
51617;BME280;37697;52.588;13.394;2024-02-21T20:06:12;100372.01;;;7.57;97.19
51617;BME280;37697;52.588;13.394;2024-02-21T20:11:39;100352.46;;;7.56;97.28
51617;BME280;37697;52.588;13.394;2024-02-21T20:16:58;100342.33;;;7.56;97.39
51617;BME280;37697;52.588;13.394;2024-02-21T20:22:17;100322.39;;;7.54;97.19
51617;BME280;37697;52.588;13.394;2024-02-21T20:27:25;100312.45;;;7.52;97.31
51617;BME280;37697;52.588;13.394;2024-02-21T20:32:44;100301.91;;;7.50;97.60
51617;BME280;37697;52.588;13.394;2024-02-21T20:38:10;100291.33;;;7.49;97.23
51617;BME280;37697;52.588;13.394;2024-02-21T20:43:36;100278.13;;;7.50;97.25
51617;BME280;37697;52.588;13.394;2024-02-21T20:48:54;100266.11;;;7.50;97.11
51617;BME280;37697;52.588;13.394;2024-02-21T20:54:19;100258.79;;;7.53;96.50
51617;BME280;37697;52.588;13.394;2024-02-21T20:59:45;100250.42;;;7.56;96.00
51617;BME280;37697;52.588;13.394;2024-02-21T21:04:59;100246.98;;;7.58;96.27
51617;BME280;37697;52.588;13.394;2024-02-21T21:10:26;100251.44;;;7.61;95.67
51617;BME280;37697;52.588;13.394;2024-02-21T21:15:53;100250.21;;;7.63;95.23
51617;BME280;37697;52.588;13.394;2024-02-21T21:21:18;100245.33;;;7.64;94.91
51617;BME280;37697;52.588;13.394;2024-02-21T21:26:45;100241.73;;;7.66;94.72
51617;BME280;37697;52.588;13.394;2024-02-21T21:32:11;100236.05;;;7.65;94.26
51617;BME280;37697;52.588;13.394;2024-02-21T21:37:37;100237.33;;;7.67;94.18
51617;BME280;37697;52.588;13.394;2024-02-21T21:43:03;100233.58;;;7.69;93.73
51617;BME280;37697;52.588;13.394;2024-02-21T21:48:29;100220.55;;;7.71;93.19
51617;BME280;37697;52.588;13.394;2024-02-21T21:53:54;100214.04;;;7.70;93.17
51617;BME280;37697;52.588;13.394;2024-02-21T21:59:20;100207.10;;;7.72;92.88
51617;BME280;37697;52.588;13.394;2024-02-21T22:04:35;100201.92;;;7.74;92.38
51617;BME280;37697;52.588;13.394;2024-02-21T22:10:00;100190.82;;;7.76;92.24
51617;BME280;37697;52.588;13.394;2024-02-21T22:15:26;100183.21;;;7.77;92.06
51617;BME280;37697;52.588;13.394;2024-02-21T22:20:52;100172.45;;;7.79;92.12
51617;BME280;37697;52.588;13.394;2024-02-21T22:26:17;100166.30;;;7.80;91.91
51617;BME280;37697;52.588;13.394;2024-02-21T22:31:43;100157.21;;;7.83;91.16
51617;BME280;37697;52.588;13.394;2024-02-21T22:37:09;100153.27;;;7.86;90.63
51617;BME280;37697;52.588;13.394;2024-02-21T22:42:34;100149.86;;;7.89;90.12
51617;BME280;37697;52.588;13.394;2024-02-21T22:48:00;100138.82;;;7.90;90.07
51617;BME280;37697;52.588;13.394;2024-02-21T22:53:26;100119.50;;;7.91;89.98
51617;BME280;37697;52.588;13.394;2024-02-21T22:58:44;100114.90;;;7.91;89.66
51617;BME280;37697;52.588;13.394;2024-02-21T23:04:02;100102.92;;;7.93;88.95
51617;BME280;37697;52.588;13.394;2024-02-21T23:09:28;100089.95;;;7.95;89.29
51617;BME280;37697;52.588;13.394;2024-02-21T23:14:54;100088.14;;;7.94;89.02
51617;BME280;37697;52.588;13.394;2024-02-21T23:20:19;100075.95;;;7.95;88.50
51617;BME280;37697;52.588;13.394;2024-02-21T23:25:45;100059.65;;;7.96;88.62
51617;BME280;37697;52.588;13.394;2024-02-21T23:31:12;100046.81;;;7.97;88.21
51617;BME280;37697;52.588;13.394;2024-02-21T23:36:21;100040.33;;;7.97;88.14
51617;BME280;37697;52.588;13.394;2024-02-21T23:41:46;100029.36;;;7.97;87.55
51617;BME280;37697;52.588;13.394;2024-02-21T23:47:12;100025.46;;;7.97;87.67
51617;BME280;37697;52.588;13.394;2024-02-21T23:52:38;100017.30;;;7.97;87.55
51617;BME280;37697;52.588;13.394;2024-02-21T23:58:04;100000.87;;;7.96;87.59
